Time;durP1;ratioP1;P1;durP2;ratioP2;P2;SDS_P1;SDS_P2;PMS_P1;PMS_P2;Temp;Humidity;BMP_temperature;BMP_pressure;BME280_temperature;BME280_humidity;BME280_pressure;Samples;Min_cycle;Max_cycle;Signal;HPM_P1;HPM_P2
2021/01/26 00:54:32;;;;;;;18.88;3.10;;;;;;;;;;4732229;30;20442;-90
2021/01/26 01:00:32;;;;;;;;;;;;;;;;;;;;;
2021/01/26 01:03:18;;;;;;;16.65;3.58;;;;;;;;;;4815610;29;20445;-88
2021/01/26 01:06:11;;;;;;;17.08;3.53;;;;;;;;;;4803021;29;20481;-88
2021/01/26 01:11:48;;;;;;;14.50;3.20;;;;;;;;;;4814997;29;20445;-86
2021/01/26 01:14:48;;;;;;;16.23;3.65;;;;;;;;;;4807489;29;20536;-86
2021/01/26 01:20:32;;;;;;;16.30;2.93;;;;;;;;;;4772171;29;20466;-87
2021/01/26 01:23:24;;;;;;;22.70;4.30;;;;;;;;;;4814441;29;21149;-86
2021/01/26 01:29:46;;;;;;;18.95;3.72;;;;;;;;;;4833951;29;20423;-86
2021/01/26 01:32:21;;;;;;;19.00;4.07;;;;;;;;;;4863014;29;20459;-86
2021/01/26 01:34:58;;;;;;;19.52;4.10;;;;;;;;;;4881648;29;20426;-85
2021/01/26 01:40:59;;;;;;;18.73;4.10;;;;;;;;;;4887275;29;20453;-86
2021/01/26 01:43:58;;;;;;;25.30;4.57;;;;;;;;;;4870873;29;20528;-83
2021/01/26 01:46:55;;;;;;;24.52;4.18;;;;;;;;;;4875834;29;20427;-85
2021/01/26 01:49:46;;;;;;;21.10;4.15;;;;;;;;;;4886895;29;20449;-83
2021/01/26 01:52:33;;;;;;;;;;;;;;;;;;;;;
2021/01/26 01:55:39;;;;;;;22.00;4.45;;;;;;;;;;4889786;29;20415;-85
2021/01/26 01:58:10;;;;;;;17.05;3.45;;;;;;;;;;4887869;29;20578;-84
2021/01/26 02:03:37;;;;;;;21.77;3.80;;;;;;;;;;4852445;29;20422;-84
2021/01/26 02:09:26;;;;;;;16.27;3.40;;;;;;;;;;4883393;29;20437;-84
2021/01/26 02:12:08;;;;;;;14.57;3.05;;;;;;;;;;4871016;29;20441;-86
2021/01/26 02:15:00;;;;;;;18.80;3.05;;;;;;;;;;4873356;29;20467;-86
2021/01/26 02:17:56;;;;;;;20.27;3.03;;;;;;;;;;4884663;29;20487;-84
2021/01/26 02:20:55;;;;;;;17.67;2.67;;;;;;;;;;4855773;29;20418;-85
2021/01/26 02:23:42;;;;;;;15.63;3.10;;;;;;;;;;4870985;29;20502;-85
2021/01/26 02:26:32;;;;;;;12.85;2.50;;;;;;;;;;4873169;29;20414;-86
2021/01/26 02:29:32;;;;;;;15.03;2.47;;;;;;;;;;4873252;29;20414;-84
2021/01/26 02:35:40;;;;;;;19.48;3.50;;;;;;;;;;4887320;29;20481;-85
2021/01/26 02:38:28;;;;;;;17.45;3.40;;;;;;;;;;4878324;29;20410;-86
2021/01/26 02:41:26;;;;;;;15.60;3.17;;;;;;;;;;4875146;29;20490;-87
2021/01/26 02:44:31;;;;;;;;;;;;;;;;;;;;;
2021/01/26 02:47:11;;;;;;;18.42;3.13;;;;;;;;;;4889123;29;20436;-88
2021/01/26 02:50:14;;;;;;;17.75;4.28;;;;;;;;;;4889146;29;20411;-87
2021/01/26 02:59:41;;;;;;;18.23;3.17;;;;;;;;;;4795464;29;20480;-87
2021/01/26 03:05:25;;;;;;;;;;;;;;;;;;;;;
2021/01/26 03:11:39;;;;;;;;;;;;;;;;;;;;;
2021/01/26 03:14:40;;;;;;;13.40;2.85;;;;;;;;;;4893269;29;20461;-87
2021/01/26 03:21:00;;;;;;;13.10;2.90;;;;;;;;;;4849953;29;20482;-87
2021/01/26 03:24:03;;;;;;;16.70;2.53;;;;;;;;;;4885456;29;20459;-86
2021/01/26 03:27:13;;;;;;;12.50;3.17;;;;;;;;;;4874683;29;20423;-85
2021/01/26 03:33:28;;;;;;;;;;;;;;;;;;;;;
2021/01/26 03:35:52;;;;;;;12.38;2.80;;;;;;;;;;4883178;29;20584;-86
2021/01/26 03:38:49;;;;;;;;;;;;;;;;;;;;;
2021/01/26 03:42:00;;;;;;;;;;;;;;;;;;;;;
2021/01/26 03:44:49;;;;;;;17.00;3.58;;;;;;;;;;4887800;29;21196;-89
2021/01/26 03:47:30;;;;;;;16.85;2.88;;;;;;;;;;4887433;29;20427;-84
2021/01/26 03:50:23;;;;;;;12.75;2.67;;;;;;;;;;4873833;29;21139;-84
2021/01/26 03:53:24;;;;;;;13.77;2.67;;;;;;;;;;4869160;29;20988;-84
2021/01/26 03:56:14;;;;;;;13.40;2.50;;;;;;;;;;4889939;29;20433;-84
2021/01/26 03:59:02;;;;;;;10.98;2.05;;;;;;;;;;4882090;29;20562;-85
2021/01/26 04:01:37;;;;;;;11.13;2.20;;;;;;;;;;4875706;29;20483;-86
2021/01/26 04:04:47;;;;;;;11.05;1.90;;;;;;;;;;4874511;29;20432;-85
2021/01/26 04:07:20;;;;;;;12.63;2.33;;;;;;;;;;4833897;29;20493;-86
2021/01/26 04:09:59;;;;;;;11.13;1.83;;;;;;;;;;4879993;29;20489;-84
2021/01/26 04:12:35;;;;;;;9.20;1.80;;;;;;;;;;4889797;29;20466;-86
2021/01/26 04:15:27;;;;;;;10.82;1.98;;;;;;;;;;4873268;29;20996;-84
2021/01/26 04:18:12;;;;;;;8.52;1.60;;;;;;;;;;4888962;29;20551;-83
2021/01/26 04:21:08;;;;;;;;;;;;;;;;;;;;;
2021/01/26 04:24:03;;;;;;;8.13;1.38;;;;;;;;;;4906543;29;20513;-86
2021/01/26 04:26:41;;;;;;;5.00;1.35;;;;;;;;;;4905764;29;20483;-87
2021/01/26 04:29:20;;;;;;;5.28;1.13;;;;;;;;;;4907221;29;20490;-85
2021/01/26 04:35:39;;;;;;;6.17;1.00;;;;;;;;;;4908378;29;20454;-88
2021/01/26 04:38:39;;;;;;;7.05;1.25;;;;;;;;;;4896557;29;20503;-86
2021/01/26 04:41:47;;;;;;;5.75;1.23;;;;;;;;;;4905760;29;20522;-86
2021/01/26 04:44:30;;;;;;;6.38;1.50;;;;;;;;;;4885008;29;20479;-83
2021/01/26 04:47:25;;;;;;;6.10;1.13;;;;;;;;;;4905444;29;20490;-85
2021/01/26 04:49:59;;;;;;;7.03;1.10;;;;;;;;;;4902784;29;20492;-87
2021/01/26 04:52:58;;;;;;;5.38;1.20;;;;;;;;;;4892170;29;20441;-86
2021/01/26 04:55:24;;;;;;;4.93;1.30;;;;;;;;;;4891954;29;20508;-83
2021/01/26 04:58:01;;;;;;;6.93;1.40;;;;;;;;;;4892147;29;20547;-85
2021/01/26 05:00:47;;;;;;;7.40;1.60;;;;;;;;;;4891774;29;20479;-85
2021/01/26 05:03:42;;;;;;;6.50;1.38;;;;;;;;;;4909120;29;20416;-84
2021/01/26 05:06:18;;;;;;;5.67;1.30;;;;;;;;;;4889860;29;20532;-85
2021/01/26 05:11:50;;;;;;;8.98;1.48;;;;;;;;;;4869145;29;20493;-85
2021/01/26 05:17:54;;;;;;;5.82;1.58;;;;;;;;;;4889591;29;20474;-85
2021/01/26 05:20:43;;;;;;;7.85;1.58;;;;;;;;;;4909433;29;20508;-85
2021/01/26 05:23:31;;;;;;;7.95;1.55;;;;;;;;;;4885508;29;20464;-86
2021/01/26 05:26:26;;;;;;;5.88;1.20;;;;;;;;;;4904856;29;20487;-85
2021/01/26 05:29:08;;;;;;;6.37;1.33;;;;;;;;;;4903831;29;20466;-86
2021/01/26 05:31:46;;;;;;;5.38;1.20;;;;;;;;;;4905196;29;20470;-87
2021/01/26 05:34:29;;;;;;;5.10;1.30;;;;;;;;;;4906399;29;20436;-85
2021/01/26 05:36:58;;;;;;;5.50;1.30;;;;;;;;;;4889630;29;20553;-86
2021/01/26 05:39:35;;;;;;;9.20;1.60;;;;;;;;;;4899782;29;20478;-85
2021/01/26 05:48:26;;;;;;;6.53;1.33;;;;;;;;;;4907330;29;20560;-86
2021/01/26 05:51:32;;;;;;;6.97;1.75;;;;;;;;;;4891939;29;20505;-86
2021/01/26 05:54:15;;;;;;;8.65;1.50;;;;;;;;;;4905971;29;21056;-85
2021/01/26 05:56:57;;;;;;;8.38;1.77;;;;;;;;;;4905496;29;20413;-86
2021/01/26 06:00:06;;;;;;;;;;;;;;;;;;;;;
2021/01/26 06:03:08;;;;;;;8.70;2.00;;;;;;;;;;4892495;29;20472;-85
2021/01/26 06:05:40;;;;;;;7.68;1.50;;;;;;;;;;4891507;29;20977;-87
2021/01/26 06:08:11;;;;;;;11.68;1.83;;;;;;;;;;4891939;29;21016;-84
2021/01/26 06:10:45;;;;;;;9.10;2.05;;;;;;;;;;4897078;29;20483;-84
2021/01/26 06:13:28;;;;;;;7.85;1.83;;;;;;;;;;4897671;29;20476;-86
2021/01/26 06:16:20;;;;;;;8.45;1.42;;;;;;;;;;4892744;29;20474;-85
2021/01/26 06:19:06;;;;;;;8.85;1.75;;;;;;;;;;4906241;29;20444;-87
2021/01/26 06:21:58;;;;;;;11.18;1.42;;;;;;;;;;4907838;29;20464;-86
2021/01/26 06:24:44;;;;;;;;;;;;;;;;;;;;;
2021/01/26 06:27:35;;;;;;;8.65;1.85;;;;;;;;;;4911803;29;20994;-85
2021/01/26 06:30:20;;;;;;;13.98;1.85;;;;;;;;;;4909840;29;21018;-87
2021/01/26 06:33:11;;;;;;;;;;;;;;;;;;;;;
2021/01/26 06:36:00;;;;;;;8.00;1.70;;;;;;;;;;4910606;29;20421;-86
2021/01/26 06:42:35;;;;;;;9.38;1.90;;;;;;;;;;4912796;29;20490;-85
2021/01/26 06:44:52;;;;;;;9.35;2.13;;;;;;;;;;4903868;29;20502;-83
2021/01/26 06:47:34;;;;;;;11.98;2.20;;;;;;;;;;4891526;29;20513;-84
2021/01/26 06:50:07;;;;;;;8.60;1.83;;;;;;;;;;4899565;29;20502;-86
2021/01/26 06:52:35;;;;;;;11.02;1.92;;;;;;;;;;4894277;29;20456;-84
2021/01/26 06:58:24;;;;;;;15.93;3.97;;;;;;;;;;4911063;29;20448;-89
2021/01/26 07:01:10;;;;;;;16.73;5.00;;;;;;;;;;4907736;29;20486;-87
2021/01/26 07:04:13;;;;;;;9.23;2.67;;;;;;;;;;4894399;29;20433;-85
2021/01/26 07:06:58;;;;;;;81.63;38.63;;;;;;;;;;4907360;29;20457;-84
2021/01/26 07:16:08;;;;;;;6.55;1.90;;;;;;;;;;4885842;29;20920;-84
2021/01/26 07:18:40;;;;;;;8.05;1.98;;;;;;;;;;4908687;29;20954;-86
2021/01/26 07:21:09;;;;;;;10.57;1.93;;;;;;;;;;4894183;29;20421;-84
2021/01/26 07:27:07;;;;;;;7.25;1.40;;;;;;;;;;4907505;29;20411;-87
2021/01/26 07:29:53;;;;;;;;;;;;;;;;;;;;;
2021/01/26 07:32:29;;;;;;;7.60;1.35;;;;;;;;;;4916070;29;20440;-86
2021/01/26 07:35:34;;;;;;;7.22;1.65;;;;;;;;;;4913879;29;21029;-87
2021/01/26 07:38:28;;;;;;;10.40;2.08;;;;;;;;;;4883812;29;20773;-87
2021/01/26 07:41:00;;;;;;;6.50;1.23;;;;;;;;;;4878717;29;20547;-84
2021/01/26 07:43:56;;;;;;;6.55;1.45;;;;;;;;;;4906214;29;20499;-86
2021/01/26 07:46:53;;;;;;;6.90;1.80;;;;;;;;;;4901914;29;20399;-84
2021/01/26 07:49:44;;;;;;;8.63;1.90;;;;;;;;;;4878596;29;20543;-86
2021/01/26 07:52:12;;;;;;;9.63;1.70;;;;;;;;;;4918254;29;20433;-84
2021/01/26 07:54:50;;;;;;;5.70;1.63;;;;;;;;;;4898523;29;20405;-85
2021/01/26 07:57:17;;;;;;;8.80;1.70;;;;;;;;;;4912288;29;20706;-85
2021/01/26 08:00:19;;;;;;;7.97;1.73;;;;;;;;;;4914054;29;20872;-85
2021/01/26 08:02:56;;;;;;;8.25;1.70;;;;;;;;;;4889956;29;20444;-84
2021/01/26 08:05:38;;;;;;;8.73;1.70;;;;;;;;;;4914153;29;21009;-84
2021/01/26 08:08:05;;;;;;;8.65;2.00;;;;;;;;;;4898135;29;20449;-84
2021/01/26 08:10:31;;;;;;;9.15;2.42;;;;;;;;;;4898177;29;20817;-83
2021/01/26 08:13:01;;;;;;;8.75;2.28;;;;;;;;;;4915361;29;20466;-85
2021/01/26 08:15:28;;;;;;;14.55;4.38;;;;;;;;;;4896208;29;20459;-84
2021/01/26 08:17:54;;;;;;;11.20;2.30;;;;;;;;;;4905927;29;20873;-85
2021/01/26 08:20:40;;;;;;;9.50;2.28;;;;;;;;;;4906528;29;20489;-85
2021/01/26 08:23:10;;;;;;;11.13;2.65;;;;;;;;;;4905289;29;20401;-85
2021/01/26 08:25:43;;;;;;;10.70;2.10;;;;;;;;;;4905420;29;20515;-86
2021/01/26 08:28:10;;;;;;;8.88;2.08;;;;;;;;;;4910334;29;20445;-84
2021/01/26 08:30:38;;;;;;;12.68;2.72;;;;;;;;;;4899402;29;20461;-85
2021/01/26 08:33:15;;;;;;;11.18;2.17;;;;;;;;;;4896142;29;20409;-85
2021/01/26 08:35:47;;;;;;;8.75;1.98;;;;;;;;;;4895258;29;20436;-84
2021/01/26 08:38:38;;;;;;;14.93;2.58;;;;;;;;;;4911671;29;20456;-83
2021/01/26 08:41:09;;;;;;;11.90;1.92;;;;;;;;;;4895921;29;20894;-82
2021/01/26 08:43:49;;;;;;;9.82;1.80;;;;;;;;;;4896689;29;21065;-82
2021/01/26 08:46:43;;;;;;;9.48;1.83;;;;;;;;;;4910396;29;20385;-83
2021/01/26 08:49:20;;;;;;;8.20;1.52;;;;;;;;;;4915831;29;20495;-83
2021/01/26 08:51:56;;;;;;;10.53;2.43;;;;;;;;;;4894466;29;20843;-82
2021/01/26 08:54:55;;;;;;;10.35;2.90;;;;;;;;;;4911316;29;20487;-84
2021/01/26 08:57:40;;;;;;;8.95;2.50;;;;;;;;;;4904562;29;20393;-83
2021/01/26 09:00:18;;;;;;;10.68;2.42;;;;;;;;;;4893798;29;20417;-83
2021/01/26 09:05:59;;;;;;;11.30;3.17;;;;;;;;;;4911944;29;20744;-84
2021/01/26 09:08:58;;;;;;;6.05;1.90;;;;;;;;;;4910115;29;20501;-87
2021/01/26 09:11:30;;;;;;;8.85;1.77;;;;;;;;;;4904659;29;20437;-83
2021/01/26 09:17:07;;;;;;;6.60;1.95;;;;;;;;;;4910456;29;20520;-84
2021/01/26 09:22:49;;;;;;;9.05;1.83;;;;;;;;;;4901437;29;20409;-85
2021/01/26 09:25:23;;;;;;;8.93;1.85;;;;;;;;;;4896553;29;20464;-85
2021/01/26 09:28:02;;;;;;;6.15;1.67;;;;;;;;;;4914029;29;20409;-87
2021/01/26 09:30:29;;;;;;;7.35;1.60;;;;;;;;;;4919464;29;20419;-84
2021/01/26 09:33:31;;;;;;;10.07;1.98;;;;;;;;;;4907660;29;20418;-84
2021/01/26 09:36:08;;;;;;;7.10;1.55;;;;;;;;;;4902442;29;20394;-83
2021/01/26 09:38:48;;;;;;;9.40;1.90;;;;;;;;;;4911072;29;20883;-83
2021/01/26 09:44:20;;;;;;;9.55;2.28;;;;;;;;;;4909849;29;20461;-81
2021/01/26 09:47:00;;;;;;;7.13;2.20;;;;;;;;;;4912414;29;20506;-81
2021/01/26 09:49:28;;;;;;;7.07;1.50;;;;;;;;;;4912946;29;20448;-83
2021/01/26 09:55:08;;;;;;;10.03;1.67;;;;;;;;;;4903876;29;20873;-82
2021/01/26 09:57:42;;;;;;;7.22;1.58;;;;;;;;;;4914087;29;20401;-84
2021/01/26 10:00:23;;;;;;;8.77;1.92;;;;;;;;;;4913240;29;20398;-85
2021/01/26 10:03:02;;;;;;;9.02;1.85;;;;;;;;;;4919120;29;20397;-85
2021/01/26 10:05:30;;;;;;;6.65;1.70;;;;;;;;;;4894311;29;20394;-85
2021/01/26 10:08:09;;;;;;;8.80;1.70;;;;;;;;;;4904366;29;20455;-83
2021/01/26 10:10:37;;;;;;;7.07;1.70;;;;;;;;;;4903447;29;20484;-84
2021/01/26 10:13:24;;;;;;;7.28;2.00;;;;;;;;;;4908233;29;20442;-84
2021/01/26 10:15:54;;;;;;;7.20;1.60;;;;;;;;;;4909591;29;20413;-84
2021/01/26 10:18:36;;;;;;;7.22;1.60;;;;;;;;;;4894908;29;20428;-83
2021/01/26 10:21:13;;;;;;;6.72;1.92;;;;;;;;;;4911995;29;20683;-83
2021/01/26 10:24:00;;;;;;;9.40;2.20;;;;;;;;;;4910578;29;20412;-84
2021/01/26 10:26:34;;;;;;;6.10;1.88;;;;;;;;;;4898881;29;20405;-83
2021/01/26 10:29:05;;;;;;;7.22;1.73;;;;;;;;;;4892868;29;20401;-83
2021/01/26 10:31:42;;;;;;;8.60;2.10;;;;;;;;;;4903194;29;20417;-83
2021/01/26 10:34:40;;;;;;;8.32;2.00;;;;;;;;;;4919400;29;20405;-83
2021/01/26 10:37:15;;;;;;;8.98;2.13;;;;;;;;;;4873929;29;20429;-83
2021/01/26 10:39:42;;;;;;;9.77;2.33;;;;;;;;;;4910617;29;20417;-82
2021/01/26 10:42:24;;;;;;;7.03;2.10;;;;;;;;;;4909966;29;20492;-81
2021/01/26 10:44:53;;;;;;;9.07;1.90;;;;;;;;;;4895495;29;20860;-83
2021/01/26 10:47:35;;;;;;;13.50;2.40;;;;;;;;;;4895354;29;20493;-83
2021/01/26 10:50:07;;;;;;;7.30;1.70;;;;;;;;;;4895380;29;20405;-80
2021/01/26 10:52:35;;;;;;;6.05;1.83;;;;;;;;;;4894453;29;20513;-81
2021/01/26 10:55:34;;;;;;;7.32;1.65;;;;;;;;;;4895931;29;20398;-85
2021/01/26 10:58:11;;;;;;;12.27;2.25;;;;;;;;;;4876742;29;20441;-87
2021/01/26 11:00:37;;;;;;;10.50;2.20;;;;;;;;;;4914114;29;20497;-86
2021/01/26 11:03:05;;;;;;;7.78;1.90;;;;;;;;;;4906936;29;20869;-85
2021/01/26 11:05:52;;;;;;;7.60;2.05;;;;;;;;;;4897895;29;20477;-85
2021/01/26 11:08:18;;;;;;;9.40;2.05;;;;;;;;;;4897545;29;20398;-84
2021/01/26 11:10:44;;;;;;;11.88;2.50;;;;;;;;;;4910204;29;20429;-84
2021/01/26 11:13:10;;;;;;;10.95;2.38;;;;;;;;;;4898003;29;20401;-84
2021/01/26 11:15:43;;;;;;;11.30;2.20;;;;;;;;;;4913275;29;20399;-86
2021/01/26 11:18:17;;;;;;;8.25;1.92;;;;;;;;;;4914879;29;20892;-86
2021/01/26 11:20:44;;;;;;;8.50;2.42;;;;;;;;;;4916612;29;20401;-81
2021/01/26 11:23:10;;;;;;;8.90;2.13;;;;;;;;;;4914811;29;20405;-82
2021/01/26 11:25:37;;;;;;;10.10;2.13;;;;;;;;;;4910230;29;20387;-81
2021/01/26 11:28:06;;;;;;;8.50;2.40;;;;;;;;;;4906681;29;20448;-83
2021/01/26 11:30:32;;;;;;;11.27;2.15;;;;;;;;;;4913145;29;20425;-81
2021/01/26 11:32:58;;;;;;;7.97;1.85;;;;;;;;;;4893762;29;20410;-82
2021/01/26 11:35:26;;;;;;;7.32;1.92;;;;;;;;;;4904935;29;20466;-81
2021/01/26 11:37:52;;;;;;;10.38;2.05;;;;;;;;;;4905200;29;20398;-81
2021/01/26 11:40:18;;;;;;;10.30;2.08;;;;;;;;;;4898750;29;20458;-81
2021/01/26 11:42:44;;;;;;;8.73;1.90;;;;;;;;;;4898772;29;20403;-82
2021/01/26 11:45:12;;;;;;;6.18;2.22;;;;;;;;;;4894036;29;20745;-82
2021/01/26 11:47:48;;;;;;;9.77;2.10;;;;;;;;;;4906650;29;20432;-82
2021/01/26 11:50:14;;;;;;;8.90;2.25;;;;;;;;;;4888340;29;20897;-81
2021/01/26 11:52:41;;;;;;;10.18;1.73;;;;;;;;;;4912921;29;20428;-82
2021/01/26 11:55:10;;;;;;;6.57;1.98;;;;;;;;;;4897240;29;20402;-81
2021/01/26 11:57:41;;;;;;;10.07;2.33;;;;;;;;;;4897297;29;20897;-83
2021/01/26 12:00:09;;;;;;;8.30;2.13;;;;;;;;;;4903458;29;20921;-83
2021/01/26 12:02:37;;;;;;;11.20;2.40;;;;;;;;;;4924494;29;20397;-83
2021/01/26 12:05:06;;;;;;;10.15;2.60;;;;;;;;;;4908821;29;20496;-82
2021/01/26 12:07:32;;;;;;;11.52;2.63;;;;;;;;;;4901613;29;20414;-83
2021/01/26 12:10:00;;;;;;;9.80;2.13;;;;;;;;;;4911128;29;20416;-84
2021/01/26 12:12:26;;;;;;;9.82;2.50;;;;;;;;;;4896782;29;20425;-83
2021/01/26 12:15:01;;;;;;;13.15;2.75;;;;;;;;;;4918342;29;20406;-81
2021/01/26 12:17:27;;;;;;;12.57;2.25;;;;;;;;;;4915226;29;20429;-83
2021/01/26 12:19:55;;;;;;;13.85;2.55;;;;;;;;;;4920797;29;20403;-83
2021/01/26 12:22:21;;;;;;;8.38;2.20;;;;;;;;;;4912434;29;20393;-83
2021/01/26 12:24:47;;;;;;;14.88;2.65;;;;;;;;;;4917658;29;20395;-82
2021/01/26 12:27:13;;;;;;;9.32;2.10;;;;;;;;;;4896652;29;20541;-82
2021/01/26 12:29:40;;;;;;;8.90;2.43;;;;;;;;;;4912017;29;20417;-81
2021/01/26 12:32:06;;;;;;;11.63;2.35;;;;;;;;;;4920091;29;20470;-83
2021/01/26 12:34:32;;;;;;;8.80;2.33;;;;;;;;;;4909109;29;20425;-82
2021/01/26 12:36:59;;;;;;;8.43;2.30;;;;;;;;;;4917928;29;20409;-83
2021/01/26 12:39:27;;;;;;;8.65;2.10;;;;;;;;;;4912060;29;20423;-82
2021/01/26 12:41:53;;;;;;;7.32;2.00;;;;;;;;;;4916620;29;20863;-83
2021/01/26 12:44:20;;;;;;;8.05;1.58;;;;;;;;;;4897694;29;20407;-83
2021/01/26 12:46:46;;;;;;;9.27;1.60;;;;;;;;;;4916212;29;20475;-83
2021/01/26 12:49:12;;;;;;;8.52;1.95;;;;;;;;;;4895444;29;20875;-83
2021/01/26 12:51:38;;;;;;;9.02;2.30;;;;;;;;;;4911631;29;20428;-83
2021/01/26 12:54:05;;;;;;;7.55;2.10;;;;;;;;;;4911777;29;20397;-81
2021/01/26 12:56:31;;;;;;;10.98;2.15;;;;;;;;;;4911572;29;20422;-81
2021/01/26 12:58:57;;;;;;;5.40;1.60;;;;;;;;;;4906399;29;20393;-81
2021/01/26 13:01:28;;;;;;;7.53;1.42;;;;;;;;;;4922209;29;20484;-84
2021/01/26 13:03:57;;;;;;;6.80;1.88;;;;;;;;;;4910862;29;20390;-83
2021/01/26 13:06:23;;;;;;;9.32;1.63;;;;;;;;;;4906152;29;20397;-82
2021/01/26 13:08:52;;;;;;;7.72;1.77;;;;;;;;;;4911429;29;20461;-82
2021/01/26 13:11:18;;;;;;;9.18;1.83;;;;;;;;;;4919284;29;21105;-84
2021/01/26 13:13:45;;;;;;;11.23;2.42;;;;;;;;;;4897436;29;20425;-83
2021/01/26 13:16:11;;;;;;;12.27;2.60;;;;;;;;;;4908613;29;20996;-82
2021/01/26 13:18:37;;;;;;;8.95;2.35;;;;;;;;;;4910927;29;20440;-83
2021/01/26 13:21:03;;;;;;;9.23;1.98;;;;;;;;;;4912639;29;20435;-84
2021/01/26 13:23:29;;;;;;;6.88;2.03;;;;;;;;;;4919201;29;20468;-83
2021/01/26 13:25:55;;;;;;;11.80;2.30;;;;;;;;;;4914683;29;20467;-81
2021/01/26 13:28:21;;;;;;;9.98;1.90;;;;;;;;;;4911499;29;20451;-82
2021/01/26 13:30:48;;;;;;;7.35;1.73;;;;;;;;;;4910518;29;20424;-81
2021/01/26 13:33:14;;;;;;;9.88;1.83;;;;;;;;;;4910825;29;22230;-83
2021/01/26 13:35:40;;;;;;;8.33;2.20;;;;;;;;;;4910571;29;20500;-82
2021/01/26 13:38:06;;;;;;;6.43;1.60;;;;;;;;;;4905105;29;20506;-83
2021/01/26 13:40:32;;;;;;;10.55;2.05;;;;;;;;;;4903394;29;20402;-82
2021/01/26 13:43:00;;;;;;;8.73;2.30;;;;;;;;;;4902458;29;20836;-82
2021/01/26 13:45:28;;;;;;;12.03;2.57;;;;;;;;;;4891998;29;20417;-84
2021/01/26 13:47:54;;;;;;;7.63;2.33;;;;;;;;;;4907585;29;20416;-82
2021/01/26 13:50:21;;;;;;;11.65;2.70;;;;;;;;;;4909837;29;20893;-83
2021/01/26 13:52:47;;;;;;;8.18;2.50;;;;;;;;;;4894741;29;20413;-82
2021/01/26 13:55:14;;;;;;;7.78;2.40;;;;;;;;;;4895277;29;20408;-82
2021/01/26 13:57:40;;;;;;;11.18;2.97;;;;;;;;;;4909191;29;20420;-80
2021/01/26 14:00:07;;;;;;;11.70;2.47;;;;;;;;;;4909510;29;20931;-81
2021/01/26 14:02:33;;;;;;;8.20;1.97;;;;;;;;;;4893006;29;20744;-81
2021/01/26 14:04:59;;;;;;;7.63;2.00;;;;;;;;;;4894106;29;20561;-81
2021/01/26 14:07:25;;;;;;;6.93;1.77;;;;;;;;;;4907230;29;21137;-81
2021/01/26 14:09:51;;;;;;;7.63;1.67;;;;;;;;;;4893585;29;20413;-80
2021/01/26 14:12:17;;;;;;;8.18;2.40;;;;;;;;;;4914892;29;20903;-80
2021/01/26 14:14:43;;;;;;;7.60;2.07;;;;;;;;;;4908999;29;20743;-81
2021/01/26 14:17:09;;;;;;;5.82;1.80;;;;;;;;;;4893307;29;20975;-83
2021/01/26 14:19:35;;;;;;;5.78;1.63;;;;;;;;;;4910016;29;20732;-82
2021/01/26 14:22:01;;;;;;;7.88;2.08;;;;;;;;;;4894915;29;20484;-81
2021/01/26 14:24:27;;;;;;;5.90;1.90;;;;;;;;;;4893293;29;20499;-81
2021/01/26 14:26:53;;;;;;;4.70;1.63;;;;;;;;;;4895789;29;20413;-82
2021/01/26 14:29:19;;;;;;;7.35;2.13;;;;;;;;;;4908954;29;20496;-81
2021/01/26 14:31:45;;;;;;;8.75;2.50;;;;;;;;;;4895410;29;20421;-85
2021/01/26 14:34:11;;;;;;;8.43;2.55;;;;;;;;;;4912382;29;21112;-82
2021/01/26 14:36:37;;;;;;;7.28;2.22;;;;;;;;;;4914239;29;20397;-80
2021/01/26 14:39:04;;;;;;;5.63;1.80;;;;;;;;;;4913993;29;20428;-82
2021/01/26 14:41:30;;;;;;;7.22;1.73;;;;;;;;;;4913394;29;20905;-83
2021/01/26 14:43:56;;;;;;;5.30;1.63;;;;;;;;;;4897511;29;20477;-80
2021/01/26 14:46:25;;;;;;;6.00;1.90;;;;;;;;;;4896594;29;20416;-85
2021/01/26 14:48:51;;;;;;;8.23;1.85;;;;;;;;;;4912347;29;20417;-81
2021/01/26 14:51:17;;;;;;;6.57;2.00;;;;;;;;;;4900117;29;20551;-82
2021/01/26 14:53:44;;;;;;;5.57;1.63;;;;;;;;;;4912382;29;20397;-81
2021/01/26 14:56:10;;;;;;;8.52;2.08;;;;;;;;;;4909347;29;20791;-80
2021/01/26 14:58:37;;;;;;;6.43;2.10;;;;;;;;;;4897576;29;20721;-82
2021/01/26 15:01:03;;;;;;;6.70;2.05;;;;;;;;;;4896862;29;20401;-80
2021/01/26 15:03:29;;;;;;;8.82;2.40;;;;;;;;;;4895883;29;20409;-81
2021/01/26 15:05:55;;;;;;;10.30;3.95;;;;;;;;;;4912994;29;20441;-81
2021/01/26 15:08:21;;;;;;;7.60;2.40;;;;;;;;;;4913902;29;20397;-81
2021/01/26 15:10:47;;;;;;;12.02;4.13;;;;;;;;;;4912447;29;20418;-81
2021/01/26 15:13:13;;;;;;;12.68;3.55;;;;;;;;;;4912565;29;20413;-81
2021/01/26 15:15:39;;;;;;;8.63;2.65;;;;;;;;;;4896061;29;20449;-81
2021/01/26 15:18:05;;;;;;;9.05;2.75;;;;;;;;;;4913355;29;20425;-81
2021/01/26 15:20:31;;;;;;;13.05;3.42;;;;;;;;;;4912819;29;20416;-82
2021/01/26 15:22:57;;;;;;;10.52;3.78;;;;;;;;;;4913785;29;20397;-81
2021/01/26 15:25:23;;;;;;;9.35;3.00;;;;;;;;;;4911094;29;20515;-81
2021/01/26 15:27:49;;;;;;;10.23;3.60;;;;;;;;;;4897421;29;20389;-81
2021/01/26 15:30:16;;;;;;;12.27;3.23;;;;;;;;;;4909540;29;20651;-81
2021/01/26 15:32:42;;;;;;;10.20;3.28;;;;;;;;;;4897331;29;20487;-81
2021/01/26 15:35:09;;;;;;;10.32;3.20;;;;;;;;;;4912662;29;20933;-83
2021/01/26 15:37:35;;;;;;;11.23;3.80;;;;;;;;;;4913021;29;20386;-81
2021/01/26 15:40:02;;;;;;;8.75;3.55;;;;;;;;;;4910860;29;20432;-81
2021/01/26 15:42:28;;;;;;;10.80;5.07;;;;;;;;;;4914381;29;20769;-81
2021/01/26 15:44:54;;;;;;;18.70;8.48;;;;;;;;;;4913061;29;20397;-81
2021/01/26 15:47:20;;;;;;;12.68;5.10;;;;;;;;;;4914505;29;20413;-80
2021/01/26 15:49:46;;;;;;;16.75;4.13;;;;;;;;;;4911348;29;20514;-82
2021/01/26 15:52:12;;;;;;;10.40;3.55;;;;;;;;;;4911103;29;20764;-80
2021/01/26 15:54:38;;;;;;;8.70;3.28;;;;;;;;;;4896788;29;20491;-81
2021/01/26 15:57:04;;;;;;;9.05;3.63;;;;;;;;;;4909857;29;21090;-82
2021/01/26 15:59:30;;;;;;;10.65;3.90;;;;;;;;;;4910862;29;20885;-80
2021/01/26 16:01:56;;;;;;;11.03;3.97;;;;;;;;;;4896354;29;20554;-81
2021/01/26 16:04:22;;;;;;;13.32;3.75;;;;;;;;;;4912847;29;20409;-81
2021/01/26 16:06:48;;;;;;;12.65;4.07;;;;;;;;;;4911027;29;20420;-81
2021/01/26 16:09:14;;;;;;;12.63;3.60;;;;;;;;;;4911317;29;20828;-81
2021/01/26 16:11:40;;;;;;;16.00;4.43;;;;;;;;;;4896156;29;20425;-81
2021/01/26 16:14:06;;;;;;;11.40;3.72;;;;;;;;;;4912434;29;20397;-81
2021/01/26 16:16:32;;;;;;;11.93;4.10;;;;;;;;;;4911421;29;20413;-81
2021/01/26 16:18:58;;;;;;;12.05;4.32;;;;;;;;;;4894970;29;20784;-80
2021/01/26 16:21:24;;;;;;;10.70;3.58;;;;;;;;;;4895902;29;20864;-81
2021/01/26 16:23:51;;;;;;;12.48;4.10;;;;;;;;;;4896622;29;20484;-82
2021/01/26 16:26:17;;;;;;;11.57;3.55;;;;;;;;;;4894748;29;20405;-80
2021/01/26 16:28:44;;;;;;;9.57;2.80;;;;;;;;;;4910676;29;20433;-82
2021/01/26 16:31:10;;;;;;;9.05;2.70;;;;;;;;;;4895700;29;20760;-81
2021/01/26 16:33:36;;;;;;;10.32;3.10;;;;;;;;;;4896304;29;20409;-80
2021/01/26 16:36:02;;;;;;;12.68;3.08;;;;;;;;;;4910975;29;20791;-83
2021/01/26 16:38:28;;;;;;;9.73;3.17;;;;;;;;;;4896327;29;20863;-81
2021/01/26 16:40:55;;;;;;;9.70;2.90;;;;;;;;;;4911366;29;20398;-81
2021/01/26 16:43:21;;;;;;;7.85;2.60;;;;;;;;;;4906293;29;20482;-81
2021/01/26 16:45:47;;;;;;;9.32;2.80;;;;;;;;;;4895321;29;20906;-80
2021/01/26 16:48:14;;;;;;;12.68;3.45;;;;;;;;;;4894871;29;20428;-81
2021/01/26 16:50:42;;;;;;;12.98;3.72;;;;;;;;;;4891909;29;20496;-81
2021/01/26 16:53:08;;;;;;;11.30;3.60;;;;;;;;;;4889526;29;20419;-83
2021/01/26 16:55:34;;;;;;;11.20;4.45;;;;;;;;;;4908633;29;20945;-81
2021/01/26 16:58:00;;;;;;;10.65;3.90;;;;;;;;;;4893933;29;20421;-80
2021/01/26 17:00:28;;;;;;;10.70;3.60;;;;;;;;;;4910470;29;20497;-81
2021/01/26 17:02:55;;;;;;;12.73;3.88;;;;;;;;;;4895757;29;20422;-84
2021/01/26 17:05:21;;;;;;;10.43;3.67;;;;;;;;;;4896058;29;20488;-82
2021/01/26 17:07:47;;;;;;;9.30;3.65;;;;;;;;;;4895614;29;20409;-82
2021/01/26 17:10:13;;;;;;;10.40;3.50;;;;;;;;;;4909912;29;20397;-80
2021/01/26 17:12:39;;;;;;;11.57;3.75;;;;;;;;;;4895753;29;20451;-81
2021/01/26 17:15:05;;;;;;;10.60;4.03;;;;;;;;;;4910800;29;20852;-82
2021/01/26 17:17:33;;;;;;;9.43;3.92;;;;;;;;;;4922447;29;20464;-80
2021/01/26 17:19:59;;;;;;;10.63;4.07;;;;;;;;;;4909882;29;20435;-83
2021/01/26 17:22:25;;;;;;;12.77;5.07;;;;;;;;;;4907988;29;20408;-84
2021/01/26 17:24:51;;;;;;;12.82;5.70;;;;;;;;;;4910763;29;20702;-82
2021/01/26 17:27:18;;;;;;;15.50;6.32;;;;;;;;;;4892758;29;20412;-81
2021/01/26 17:29:44;;;;;;;12.00;5.03;;;;;;;;;;4893430;29;20453;-82
2021/01/26 17:32:10;;;;;;;10.65;4.50;;;;;;;;;;4894774;29;20549;-81
2021/01/26 17:34:36;;;;;;;8.75;3.65;;;;;;;;;;4894089;29;20740;-81
2021/01/26 17:37:03;;;;;;;13.05;4.00;;;;;;;;;;4901733;29;20492;-82
2021/01/26 17:39:29;;;;;;;8.37;3.90;;;;;;;;;;4898270;29;20412;-81
2021/01/26 17:41:55;;;;;;;12.32;4.95;;;;;;;;;;4908477;29;20417;-81
2021/01/26 17:44:22;;;;;;;13.65;5.40;;;;;;;;;;4895234;29;20412;-82
2021/01/26 17:46:52;;;;;;;9.18;4.65;;;;;;;;;;4910690;29;20396;-82
2021/01/26 17:49:18;;;;;;;11.57;4.72;;;;;;;;;;4908376;29;20400;-83
2021/01/26 17:51:44;;;;;;;11.25;4.40;;;;;;;;;;4895141;29;20468;-82
2021/01/26 17:54:12;;;;;;;14.88;6.68;;;;;;;;;;4909964;29;20409;-81
2021/01/26 17:56:38;;;;;;;16.23;7.95;;;;;;;;;;4891586;29;20914;-82
2021/01/26 17:59:04;;;;;;;17.23;8.27;;;;;;;;;;4894452;29;20972;-82
2021/01/26 18:01:30;;;;;;;17.70;8.75;;;;;;;;;;4893965;29;20437;-80
2021/01/26 18:03:56;;;;;;;19.40;9.67;;;;;;;;;;4893326;29;20420;-81